sensor_id;sensor_type;location;lat;lon;timestamp;pressure;altitude;pressure_sealevel;temperature;humidity
20228;BME280;12195;55.790;37.572;2023-11-21T00:02:16;99327.95;;;-6.12;60.77
20228;BME280;12195;55.790;37.572;2023-11-21T00:04:49;99333.88;;;-6.13;60.55
20228;BME280;12195;55.790;37.572;2023-11-21T00:07:22;99328.78;;;-6.16;60.72
20228;BME280;12195;55.790;37.572;2023-11-21T00:09:54;99320.23;;;-6.18;60.73
20228;BME280;12195;55.790;37.572;2023-11-21T00:12:27;99328.75;;;-6.19;61.08
20228;BME280;12195;55.790;37.572;2023-11-21T00:15:00;99325.35;;;-6.21;60.95
20228;BME280;12195;55.790;37.572;2023-11-21T00:17:33;99329.58;;;-6.23;61.15
20228;BME280;12195;55.790;37.572;2023-11-21T00:20:07;99321.06;;;-6.22;61.29
20228;BME280;12195;55.790;37.572;2023-11-21T00:22:42;99321.11;;;-6.16;61.07
20228;BME280;12195;55.790;37.572;2023-11-21T00:25:14;99328.83;;;-6.06;60.87
20228;BME280;12195;55.790;37.572;2023-11-21T00:27:49;99329.63;;;-6.13;60.98
20228;BME280;12195;55.790;37.572;2023-11-21T00:30:21;99324.52;;;-6.14;60.76
20228;BME280;12195;55.790;37.572;2023-11-21T00:32:55;99326.19;;;-6.21;61.07
20228;BME280;12195;55.790;37.572;2023-11-21T00:35:28;99332.13;;;-6.25;61.13
20228;BME280;12195;55.790;37.572;2023-11-21T00:38:01;99328.72;;;-6.27;61.43
20228;BME280;12195;55.790;37.572;2023-11-21T00:40:35;99320.20;;;-6.27;61.51
20228;BME280;12195;55.790;37.572;2023-11-21T00:43:09;99315.11;;;-6.24;61.45
20228;BME280;12195;55.790;37.572;2023-11-21T00:45:43;99318.50;;;-6.24;61.50
20228;BME280;12195;55.790;37.572;2023-11-21T00:48:15;99321.94;;;-6.22;61.52
20228;BME280;12195;55.790;37.572;2023-11-21T00:50:49;99315.13;;;-6.23;61.62
20228;BME280;12195;55.790;37.572;2023-11-21T00:53:21;99311.73;;;-6.16;61.55
20228;BME280;12195;55.790;37.572;2023-11-21T00:55:54;99326.22;;;-6.16;61.37
20228;BME280;12195;55.790;37.572;2023-11-21T00:58:28;99314.31;;;-6.13;61.23
20228;BME280;12195;55.790;37.572;2023-11-21T01:01:01;99312.61;;;-6.09;61.21
20228;BME280;12195;55.790;37.572;2023-11-21T01:03:34;99309.16;;;-6.17;61.37
20228;BME280;12195;55.790;37.572;2023-11-21T01:06:10;99322.81;;;-6.15;61.32
20228;BME280;12195;55.790;37.572;2023-11-21T01:08:45;99315.13;;;-6.18;61.51
20228;BME280;12195;55.790;37.572;2023-11-21T01:11:18;99312.58;;;-6.18;61.52
20228;BME280;12195;55.790;37.572;2023-11-21T01:13:51;99314.30;;;-6.14;61.49
20228;BME280;12195;55.790;37.572;2023-11-21T01:16:24;99308.34;;;-6.16;61.69
20228;BME280;12195;55.790;37.572;2023-11-21T01:18:56;99305.78;;;-6.13;61.80
20228;BME280;12195;55.790;37.572;2023-11-21T01:21:30;99310.07;;;-6.08;61.57
20228;BME280;12195;55.790;37.572;2023-11-21T01:24:03;99306.69;;;-6.08;61.53
20228;BME280;12195;55.790;37.572;2023-11-21T01:26:37;99307.53;;;-6.05;61.39
20228;BME280;12195;55.790;37.572;2023-11-21T01:29:10;99309.25;;;-6.07;61.37
20228;BME280;12195;55.790;37.572;2023-11-21T01:31:43;99304.14;;;-6.02;61.15
20228;BME280;12195;55.790;37.572;2023-11-21T01:34:16;99304.99;;;-6.03;60.83
20228;BME280;12195;55.790;37.572;2023-11-21T01:36:49;99307.50;;;-6.09;61.06
20228;BME280;12195;55.790;37.572;2023-11-21T01:39:21;99304.11;;;-6.11;60.86
20228;BME280;12195;55.790;37.572;2023-11-21T01:41:55;99310.05;;;-6.09;60.90
20228;BME280;12195;55.790;37.572;2023-11-21T01:44:29;99318.56;;;-6.12;60.89
20228;BME280;12195;55.790;37.572;2023-11-21T01:47:03;99322.01;;;-6.08;61.02
20228;BME280;12195;55.790;37.572;2023-11-21T01:49:36;99322.83;;;-6.09;60.47
20228;BME280;12195;55.790;37.572;2023-11-21T01:52:09;99307.52;;;-6.12;60.33
20228;BME280;12195;55.790;37.572;2023-11-21T01:54:43;99318.55;;;-6.18;60.45
20228;BME280;12195;55.790;37.572;2023-11-21T01:57:16;99317.67;;;-6.20;60.56
20228;BME280;12195;55.790;37.572;2023-11-21T01:59:49;99315.12;;;-6.20;60.80
20228;BME280;12195;55.790;37.572;2023-11-21T02:02:23;99329.63;;;-6.13;60.64
20228;BME280;12195;55.790;37.572;2023-11-21T02:04:56;99315.98;;;-6.19;60.56
20228;BME280;12195;55.790;37.572;2023-11-21T02:07:29;99308.34;;;-6.13;60.23
20228;BME280;12195;55.790;37.572;2023-11-21T02:10:04;99315.13;;;-6.18;60.01
20228;BME280;12195;55.790;37.572;2023-11-21T02:12:38;99314.28;;;-6.20;60.05
20228;BME280;12195;55.790;37.572;2023-11-21T02:15:15;99325.38;;;-6.09;59.39
20228;BME280;12195;55.790;37.572;2023-11-21T02:17:51;99308.30;;;-6.22;59.26
20228;BME280;12195;55.790;37.572;2023-11-21T02:20:25;99314.26;;;-6.23;59.14
20228;BME280;12195;55.790;37.572;2023-11-21T02:23:02;99322.79;;;-6.23;59.33
20228;BME280;12195;55.790;37.572;2023-11-21T02:25:36;99332.09;;;-6.28;59.03
20228;BME280;12195;55.790;37.572;2023-11-21T02:28:09;99317.62;;;-6.30;59.06
20228;BME280;12195;55.790;37.572;2023-11-21T02:30:43;99321.00;;;-6.37;59.41
20228;BME280;12195;55.790;37.572;2023-11-21T02:33:16;99321.00;;;-6.37;59.20
20228;BME280;12195;55.790;37.572;2023-11-21T02:35:49;99323.55;;;-6.39;59.47
20228;BME280;12195;55.790;37.572;2023-11-21T02:38:23;99326.93;;;-6.38;59.62
20228;BME280;12195;55.790;37.572;2023-11-21T02:40:57;99323.56;;;-6.33;59.56
20228;BME280;12195;55.790;37.572;2023-11-21T02:43:31;99321.84;;;-6.37;59.28
20228;BME280;12195;55.790;37.572;2023-11-21T02:46:03;99319.28;;;-6.41;59.30
20228;BME280;12195;55.790;37.572;2023-11-21T02:48:36;99319.28;;;-6.41;59.27
20228;BME280;12195;55.790;37.572;2023-11-21T02:51:09;99336.30;;;-6.40;59.29
20228;BME280;12195;55.790;37.572;2023-11-21T02:53:42;99336.34;;;-6.31;58.55
20228;BME280;12195;55.790;37.572;2023-11-21T02:56:15;99342.33;;;-6.29;58.19
20228;BME280;12195;55.790;37.572;2023-11-21T02:58:48;99336.32;;;-6.37;57.97
20228;BME280;12195;55.790;37.572;2023-11-21T03:01:21;99339.67;;;-6.44;58.08
20228;BME280;12195;55.790;37.572;2023-11-21T03:03:55;99343.06;;;-6.47;58.15
20228;BME280;12195;55.790;37.572;2023-11-21T03:06:28;99340.49;;;-6.48;58.12
20228;BME280;12195;55.790;37.572;2023-11-21T03:09:01;99338.78;;;-6.51;58.31
20228;BME280;12195;55.790;37.572;2023-11-21T03:11:34;99343.00;;;-6.56;58.57
20228;BME280;12195;55.790;37.572;2023-11-21T03:14:06;99346.39;;;-6.55;58.85
20228;BME280;12195;55.790;37.572;2023-11-21T03:16:39;99346.39;;;-6.55;59.09
20228;BME280;12195;55.790;37.572;2023-11-21T03:19:12;99345.61;;;-6.47;58.64
20228;BME280;12195;55.790;37.572;2023-11-21T03:21:46;99353.28;;;-6.42;58.72
20228;BME280;12195;55.790;37.572;2023-11-21T03:24:21;99349.83;;;-6.50;58.99
20228;BME280;12195;55.790;37.572;2023-11-21T03:26:54;99350.66;;;-6.53;59.16
20228;BME280;12195;55.790;37.572;2023-11-21T03:29:26;99355.04;;;-6.35;59.07
20228;BME280;12195;55.790;37.572;2023-11-21T03:32:00;99355.02;;;-6.41;58.43
20228;BME280;12195;55.790;37.572;2023-11-21T03:34:33;99340.52;;;-6.47;58.69
20228;BME280;12195;55.790;37.572;2023-11-21T03:37:06;99359.20;;;-6.51;59.07
20228;BME280;12195;55.790;37.572;2023-11-21T03:39:40;99351.61;;;-6.40;58.98
20228;BME280;12195;55.790;37.572;2023-11-21T03:42:14;99351.53;;;-6.52;59.18
20228;BME280;12195;55.790;37.572;2023-11-21T03:44:46;99355.77;;;-6.53;59.47
20228;BME280;12195;55.790;37.572;2023-11-21T03:47:19;99373.73;;;-6.39;59.51
20228;BME280;12195;55.790;37.572;2023-11-21T03:49:53;99367.72;;;-6.47;59.41
20228;BME280;12195;55.790;37.572;2023-11-21T03:52:26;99371.97;;;-6.51;59.72
20228;BME280;12195;55.790;37.572;2023-11-21T03:55:00;99360.91;;;-6.48;59.79
20228;BME280;12195;55.790;37.572;2023-11-21T03:57:34;99372.81;;;-6.49;60.06
20228;BME280;12195;55.790;37.572;2023-11-21T04:00:09;99362.63;;;-6.46;60.03
20228;BME280;12195;55.790;37.572;2023-11-21T04:02:42;99363.58;;;-6.33;59.83
20228;BME280;12195;55.790;37.572;2023-11-21T04:05:16;99358.42;;;-6.39;59.96
20228;BME280;12195;55.790;37.572;2023-11-21T04:07:50;99364.36;;;-6.42;60.19
20228;BME280;12195;55.790;37.572;2023-11-21T04:10:26;99366.95;;;-6.37;60.15
20228;BME280;12195;55.790;37.572;2023-11-21T04:12:59;99360.98;;;-6.38;60.14
20228;BME280;12195;55.790;37.572;2023-11-21T04:15:33;99374.61;;;-6.34;60.24
20228;BME280;12195;55.790;37.572;2023-11-21T04:18:08;99373.79;;;-6.30;59.70
20228;BME280;12195;55.790;37.572;2023-11-21T04:20:42;99363.58;;;-6.30;59.71
20228;BME280;12195;55.790;37.572;2023-11-21T04:23:16;99365.25;;;-6.35;59.91
20228;BME280;12195;55.790;37.572;2023-11-21T04:25:49;99364.41;;;-6.34;59.72
20228;BME280;12195;55.790;37.572;2023-11-21T04:28:24;99365.22;;;-6.38;59.82
20228;BME280;12195;55.790;37.572;2023-11-21T04:30:58;99372.91;;;-6.35;59.70
20228;BME280;12195;55.790;37.572;2023-11-21T04:34:05;99360.21;;;-6.25;60.05
20228;BME280;12195;55.790;37.572;2023-11-21T04:36:42;99366.91;;;-6.42;60.02
20228;BME280;12195;55.790;37.572;2023-11-21T04:39:15;99372.02;;;-6.42;60.25
20228;BME280;12195;55.790;37.572;2023-11-21T04:41:52;99375.42;;;-6.43;60.37
20228;BME280;12195;55.790;37.572;2023-11-21T04:44:26;99379.72;;;-6.37;60.46
20228;BME280;12195;55.790;37.572;2023-11-21T04:47:02;99375.42;;;-6.40;60.47
20228;BME280;12195;55.790;37.572;2023-11-21T04:49:37;99382.24;;;-6.40;60.78
20228;BME280;12195;55.790;37.572;2023-11-21T04:52:15;99389.92;;;-6.39;60.90
20228;BME280;12195;55.790;37.572;2023-11-21T04:54:50;99393.38;;;-6.31;60.87
20228;BME280;12195;55.790;37.572;2023-11-21T04:57:27;99394.22;;;-6.30;60.68
20228;BME280;12195;55.790;37.572;2023-11-21T05:00:00;99393.35;;;-6.34;60.70
20228;BME280;12195;55.790;37.572;2023-11-21T05:02:37;99395.95;;;-6.29;60.74
20228;BME280;12195;55.790;37.572;2023-11-21T05:05:10;99391.64;;;-6.36;60.68
20228;BME280;12195;55.790;37.572;2023-11-21T05:07:44;99399.30;;;-6.36;60.76
20228;BME280;12195;55.790;37.572;2023-11-21T05:10:18;99396.72;;;-6.39;61.00
20228;BME280;12195;55.790;37.572;2023-11-21T05:12:53;99407.81;;;-6.37;60.86
20228;BME280;12195;55.790;37.572;2023-11-21T05:15:28;99404.41;;;-6.32;61.22
20228;BME280;12195;55.790;37.572;2023-11-21T05:18:04;99411.23;;;-6.32;60.77
20228;BME280;12195;55.790;37.572;2023-11-21T05:20:41;99413.77;;;-6.35;61.12
20228;BME280;12195;55.790;37.572;2023-11-21T05:23:16;99412.91;;;-6.34;61.25
20228;BME280;12195;55.790;37.572;2023-11-21T05:25:51;99415.53;;;-6.24;60.80
20228;BME280;12195;55.790;37.572;2023-11-21T05:28:25;99414.67;;;-6.27;60.80
20228;BME280;12195;55.790;37.572;2023-11-21T05:30:58;99405.30;;;-6.30;60.78
20228;BME280;12195;55.790;37.572;2023-11-21T05:33:35;99408.70;;;-6.31;60.79
20228;BME280;12195;55.790;37.572;2023-11-21T05:36:10;99405.27;;;-6.33;60.97
20228;BME280;12195;55.790;37.572;2023-11-21T05:38:43;99398.48;;;-6.32;61.04
20228;BME280;12195;55.790;37.572;2023-11-21T05:41:18;99402.74;;;-6.30;61.10
20228;BME280;12195;55.790;37.572;2023-11-21T05:43:55;99407.84;;;-6.30;61.24
20228;BME280;12195;55.790;37.572;2023-11-21T05:46:30;99398.52;;;-6.25;60.86
20228;BME280;12195;55.790;37.572;2023-11-21T05:49:04;99405.35;;;-6.21;61.12
20228;BME280;12195;55.790;37.572;2023-11-21T05:51:37;99399.45;;;-6.14;60.77
20228;BME280;12195;55.790;37.572;2023-11-21T05:54:11;99407.07;;;-6.21;60.90
20228;BME280;12195;55.790;37.572;2023-11-21T05:56:47;99404.57;;;-6.12;60.48
20228;BME280;12195;55.790;37.572;2023-11-21T05:59:20;99404.52;;;-6.18;60.88
20228;BME280;12195;55.790;37.572;2023-11-21T06:01:54;99407.13;;;-6.08;60.87
20228;BME280;12195;55.790;37.572;2023-11-21T06:04:30;99417.42;;;-5.96;60.43
20228;BME280;12195;55.790;37.572;2023-11-21T06:07:03;99414.02;;;-5.97;60.46
20228;BME280;12195;55.790;37.572;2023-11-21T06:09:36;99413.17;;;-5.97;60.46
20228;BME280;12195;55.790;37.572;2023-11-21T06:12:10;99425.91;;;-6.01;60.81
20228;BME280;12195;55.790;37.572;2023-11-21T06:14:43;99438.76;;;-5.92;60.85
20228;BME280;12195;55.790;37.572;2023-11-21T06:17:18;99423.41;;;-5.95;60.90
20228;BME280;12195;55.790;37.572;2023-11-21T06:19:54;99440.47;;;-5.87;60.83
20228;BME280;12195;55.790;37.572;2023-11-21T06:22:30;99426.83;;;-5.90;60.79
20228;BME280;12195;55.790;37.572;2023-11-21T06:25:04;99426.87;;;-5.85;60.91
20228;BME280;12195;55.790;37.572;2023-11-21T06:27:42;99424.33;;;-5.84;61.15
20228;BME280;12195;55.790;37.572;2023-11-21T06:30:16;99435.39;;;-5.82;61.32
20228;BME280;12195;55.790;37.572;2023-11-21T06:32:53;99421.75;;;-5.82;61.48
20228;BME280;12195;55.790;37.572;2023-11-21T06:35:27;99430.32;;;-5.70;61.47
20228;BME280;12195;55.790;37.572;2023-11-21T06:38:02;99443.11;;;-5.64;61.37
20228;BME280;12195;55.790;37.572;2023-11-21T06:40:37;99441.39;;;-5.68;61.09
20228;BME280;12195;55.790;37.572;2023-11-21T06:43:15;99443.95;;;-5.67;61.08
20228;BME280;12195;55.790;37.572;2023-11-21T06:45:49;99441.38;;;-5.74;60.85
20228;BME280;12195;55.790;37.572;2023-11-21T06:48:22;99446.47;;;-5.83;61.05
20228;BME280;12195;55.790;37.572;2023-11-21T06:50:56;99449.85;;;-5.87;61.17
20228;BME280;12195;55.790;37.572;2023-11-21T06:53:30;99444.70;;;-5.92;61.32
20228;BME280;12195;55.790;37.572;2023-11-21T06:56:22;99452.42;;;-5.78;61.40
20228;BME280;12195;55.790;37.572;2023-11-21T06:58:52;99452.41;;;-5.87;61.00
20228;BME280;12195;55.790;37.572;2023-11-21T07:01:32;99441.30;;;-5.89;61.21
20228;BME280;12195;55.790;37.572;2023-11-21T07:04:07;99439.63;;;-5.88;61.54
20228;BME280;12195;55.790;37.572;2023-11-21T07:06:54;99447.30;;;-5.82;61.76
20228;BME280;12195;55.790;37.572;2023-11-21T07:09:29;99437.95;;;-5.77;61.41
20228;BME280;12195;55.790;37.572;2023-11-21T07:12:05;99437.11;;;-5.72;61.43
20228;BME280;12195;55.790;37.572;2023-11-21T07:14:40;99439.69;;;-5.73;61.72
20228;BME280;12195;55.790;37.572;2023-11-21T07:17:15;99437.12;;;-5.71;61.53
20228;BME280;12195;55.790;37.572;2023-11-21T07:20:10;99441.40;;;-5.71;62.00
20228;BME280;12195;55.790;37.572;2023-11-21T07:22:45;99449.12;;;-5.59;61.97
20228;BME280;12195;55.790;37.572;2023-11-21T07:25:21;99450.02;;;-5.51;61.78
20228;BME280;12195;55.790;37.572;2023-11-21T07:27:55;99449.18;;;-5.44;61.83
20228;BME280;12195;55.790;37.572;2023-11-21T07:30:30;99448.35;;;-5.38;61.63
20228;BME280;12195;55.790;37.572;2023-11-21T07:33:07;99443.27;;;-5.35;61.64
20228;BME280;12195;55.790;37.572;2023-11-21T07:35:44;99446.70;;;-5.21;61.67
20228;BME280;12195;55.790;37.572;2023-11-21T07:38:21;99456.98;;;-5.15;61.53
20228;BME280;12195;55.790;37.572;2023-11-21T07:40:57;99453.51;;;-5.28;60.80
20228;BME280;12195;55.790;37.572;2023-11-21T07:43:29;99462.06;;;-5.26;60.94
20228;BME280;12195;55.790;37.572;2023-11-21T07:46:04;99452.64;;;-5.33;60.28
20228;BME280;12195;55.790;37.572;2023-11-21T07:48:40;99458.61;;;-5.35;60.17
20228;BME280;12195;55.790;37.572;2023-11-21T07:51:17;99455.20;;;-5.39;60.53
20228;BME280;12195;55.790;37.572;2023-11-21T07:53:53;99448.36;;;-5.43;60.41
20228;BME280;12195;55.790;37.572;2023-11-21T07:56:28;99443.24;;;-5.43;60.80
20228;BME280;12195;55.790;37.572;2023-11-21T07:59:03;99463.74;;;-5.32;60.37
20228;BME280;12195;55.790;37.572;2023-11-21T08:01:37;99454.38;;;-5.23;60.42
20228;BME280;12195;55.790;37.572;2023-11-21T08:04:14;99450.14;;;-5.15;60.07
20228;BME280;12195;55.790;37.572;2023-11-21T08:06:54;99435.67;;;-5.11;59.97
20228;BME280;12195;55.790;37.572;2023-11-21T08:09:28;99436.52;;;-5.08;60.50
20228;BME280;12195;55.790;37.572;2023-11-21T08:12:04;99447.66;;;-4.91;59.92
20228;BME280;12195;55.790;37.572;2023-11-21T08:14:39;99433.17;;;-4.89;59.93
20228;BME280;12195;55.790;37.572;2023-11-21T08:17:14;99440.02;;;-4.83;59.79
20228;BME280;12195;55.790;37.572;2023-11-21T08:19:49;99436.59;;;-4.82;60.02
20228;BME280;12195;55.790;37.572;2023-11-21T08:22:25;99427.22;;;-4.76;59.80
20228;BME280;12195;55.790;37.572;2023-11-21T08:24:59;99431.48;;;-4.64;60.11
20228;BME280;12195;55.790;37.572;2023-11-21T08:27:32;99432.35;;;-4.64;59.83
20228;BME280;12195;55.790;37.572;2023-11-21T08:30:13;99428.94;;;-4.60;59.63
20228;BME280;12195;55.790;37.572;2023-11-21T08:33:12;99433.22;;;-4.56;59.77
20228;BME280;12195;55.790;37.572;2023-11-21T08:35:46;99438.33;;;-4.47;59.51
20228;BME280;12195;55.790;37.572;2023-11-21T08:38:21;99426.38;;;-4.51;59.22
20228;BME280;12195;55.790;37.572;2023-11-21T08:40:55;99408.45;;;-4.52;59.33
20228;BME280;12195;55.790;37.572;2023-11-21T08:43:28;99418.69;;;-4.52;59.35
20228;BME280;12195;55.790;37.572;2023-11-21T08:46:03;99424.69;;;-4.50;59.19
20228;BME280;12195;55.790;37.572;2023-11-21T08:48:37;99416.14;;;-4.49;59.04
20228;BME280;12195;55.790;37.572;2023-11-21T08:51:11;99423.80;;;-4.45;58.92
20228;BME280;12195;55.790;37.572;2023-11-21T08:53:46;99418.70;;;-4.39;58.83
20228;BME280;12195;55.790;37.572;2023-11-21T08:56:23;99423.82;;;-4.39;58.81
20228;BME280;12195;55.790;37.572;2023-11-21T08:58:56;99423.81;;;-4.31;58.56
20228;BME280;12195;55.790;37.572;2023-11-21T09:01:36;99418.70;;;-4.39;58.38
20228;BME280;12195;55.790;37.572;2023-11-21T09:04:10;99428.95;;;-4.36;58.83
20228;BME280;12195;55.790;37.572;2023-11-21T09:06:45;99426.38;;;-4.42;58.78
20228;BME280;12195;55.790;37.572;2023-11-21T09:09:19;99437.48;;;-4.41;58.98
20228;BME280;12195;55.790;37.572;2023-11-21T09:11:53;99438.33;;;-4.39;58.73
20228;BME280;12195;55.790;37.572;2023-11-21T09:14:29;99436.63;;;-4.30;58.79
20228;BME280;12195;55.790;37.572;2023-11-21T09:17:09;99439.20;;;-4.36;58.66
20228;BME280;12195;55.790;37.572;2023-11-21T09:19:46;99440.05;;;-4.29;58.54
20228;BME280;12195;55.790;37.572;2023-11-21T09:22:21;99445.16;;;-4.22;58.58
20228;BME280;12195;55.790;37.572;2023-11-21T09:24:56;99446.88;;;-4.13;58.10
20228;BME280;12195;55.790;37.572;2023-11-21T09:27:31;99443.47;;;-4.20;57.70
20228;BME280;12195;55.790;37.572;2023-11-21T09:30:05;99460.55;;;-4.28;58.77
20228;BME280;12195;55.790;37.572;2023-11-21T09:32:41;99451.16;;;-4.32;58.83
20228;BME280;12195;55.790;37.572;2023-11-21T09:35:26;99449.42;;;-4.33;58.85
20228;BME280;12195;55.790;37.572;2023-11-21T09:38:00;99448.58;;;-4.36;58.73
20228;BME280;12195;55.790;37.572;2023-11-21T09:40:37;99447.73;;;-4.40;59.17
20228;BME280;12195;55.790;37.572;2023-11-21T09:43:15;99446.86;;;-4.43;59.48
20228;BME280;12195;55.790;37.572;2023-11-21T09:45:52;99445.17;;;-4.43;59.50
20228;BME280;12195;55.790;37.572;2023-11-21T09:48:25;99447.72;;;-4.37;59.24
20228;BME280;12195;55.790;37.572;2023-11-21T09:51:00;99461.38;;;-4.38;59.35
20228;BME280;12195;55.790;37.572;2023-11-21T09:53:36;99454.57;;;-4.36;59.23
20228;BME280;12195;55.790;37.572;2023-11-21T09:56:09;99456.27;;;-4.44;59.30
20228;BME280;12195;55.790;37.572;2023-11-21T09:58:43;99464.80;;;-4.51;59.80
20228;BME280;12195;55.790;37.572;2023-11-21T10:01:20;99456.27;;;-4.47;59.53
20228;BME280;12195;55.790;37.572;2023-11-21T10:03:56;99465.66;;;-4.44;59.44
20228;BME280;12195;55.790;37.572;2023-11-21T10:06:33;99465.65;;;-4.46;59.81
20228;BME280;12195;55.790;37.572;2023-11-21T10:09:13;99455.41;;;-4.44;59.57
20228;BME280;12195;55.790;37.572;2023-11-21T10:11:48;99467.37;;;-4.48;59.58
20228;BME280;12195;55.790;37.572;2023-11-21T10:14:25;99472.47;;;-4.52;59.76
20228;BME280;12195;55.790;37.572;2023-11-21T10:17:00;99477.59;;;-4.52;59.52
20228;BME280;12195;55.790;37.572;2023-11-21T10:19:36;99467.34;;;-4.54;59.82
20228;BME280;12195;55.790;37.572;2023-11-21T10:22:15;99473.34;;;-4.52;59.79
20228;BME280;12195;55.790;37.572;2023-11-21T10:24:49;99468.20;;;-4.47;60.07
20228;BME280;12195;55.790;37.572;2023-11-21T10:27:26;99474.19;;;-4.47;60.08
20228;BME280;12195;55.790;37.572;2023-11-21T10:30:02;99470.80;;;-4.38;60.40
20228;BME280;12195;55.790;37.572;2023-11-21T10:32:40;99468.23;;;-4.40;60.38
20228;BME280;12195;55.790;37.572;2023-11-21T10:35:17;99477.61;;;-4.30;60.48
20228;BME280;12195;55.790;37.572;2023-11-21T10:37:59;99461.39;;;-4.26;60.11
20228;BME280;12195;55.790;37.572;2023-11-21T10:40:28;99463.11;;;-4.28;59.87
20228;BME280;12195;55.790;37.572;2023-11-21T10:43:14;99458.83;;;-4.23;59.30
20228;BME280;12195;55.790;37.572;2023-11-21T10:45:43;99457.98;;;-4.16;59.29
20228;BME280;12195;55.790;37.572;2023-11-21T10:48:22;99458.83;;;-4.26;59.19
20228;BME280;12195;55.790;37.572;2023-11-21T10:50:58;99452.00;;;-4.27;58.95
20228;BME280;12195;55.790;37.572;2023-11-21T10:53:34;99464.81;;;-4.28;59.05
20228;BME280;12195;55.790;37.572;2023-11-21T10:56:12;99456.27;;;-4.38;59.05
20228;BME280;12195;55.790;37.572;2023-11-21T10:58:51;99467.37;;;-4.37;59.28
20228;BME280;12195;55.790;37.572;2023-11-21T11:01:30;99464.80;;;-4.33;59.49
20228;BME280;12195;55.790;37.572;2023-11-21T11:04:06;99475.04;;;-4.33;59.32
20228;BME280;12195;55.790;37.572;2023-11-21T11:06:49;99466.52;;;-4.45;59.58
20228;BME280;12195;55.790;37.572;2023-11-21T11:09:23;99464.80;;;-4.48;59.52
20228;BME280;12195;55.790;37.572;2023-11-21T11:11:57;99469.08;;;-4.45;59.45
20228;BME280;12195;55.790;37.572;2023-11-21T11:14:32;99464.78;;;-4.45;59.18
20228;BME280;12195;55.790;37.572;2023-11-21T11:17:06;99461.38;;;-4.41;59.06
20228;BME280;12195;55.790;37.572;2023-11-21T11:19:41;99465.66;;;-4.41;59.23
20228;BME280;12195;55.790;37.572;2023-11-21T11:22:32;99471.62;;;-4.41;59.16
20228;BME280;12195;55.790;37.572;2023-11-21T11:28:27;99469.94;;;-4.36;59.38
20228;BME280;12195;55.790;37.572;2023-11-21T11:31:04;99475.91;;;-4.50;60.06
20228;BME280;12195;55.790;37.572;2023-11-21T11:33:45;99479.32;;;-4.53;60.16
20228;BME280;12195;55.790;37.572;2023-11-21T11:36:36;99492.95;;;-4.45;60.88
20228;BME280;12195;55.790;37.572;2023-11-21T11:41:59;99483.53;;;-4.76;61.42
20228;BME280;12195;55.790;37.572;2023-11-21T11:47:25;99502.31;;;-4.71;62.05
20228;BME280;12195;55.790;37.572;2023-11-21T11:50:05;99504.00;;;-4.79;62.15
20228;BME280;12195;55.790;37.572;2023-11-21T11:52:46;99503.98;;;-4.80;62.19
20228;BME280;12195;55.790;37.572;2023-11-21T11:55:19;99505.70;;;-4.78;62.52
20228;BME280;12195;55.790;37.572;2023-11-21T11:57:55;99492.02;;;-4.86;62.52
20228;BME280;12195;55.790;37.572;2023-11-21T12:03:07;99491.17;;;-4.95;62.79
20228;BME280;12195;55.790;37.572;2023-11-21T12:05:42;99501.38;;;-5.00;63.03
20228;BME280;12195;55.790;37.572;2023-11-21T12:08:17;99502.23;;;-5.01;63.11
20228;BME280;12195;55.790;37.572;2023-11-21T12:10:51;99509.88;;;-5.10;63.22
20228;BME280;12195;55.790;37.572;2023-11-21T12:13:29;99514.09;;;-5.15;63.29
20228;BME280;12195;55.790;37.572;2023-11-21T12:16:04;99520.91;;;-5.18;63.49
20228;BME280;12195;55.790;37.572;2023-11-21T12:18:38;99521.78;;;-5.18;63.77
20228;BME280;12195;55.790;37.572;2023-11-21T12:21:11;99524.34;;;-5.18;63.72
20228;BME280;12195;55.790;37.572;2023-11-21T12:23:45;99521.00;;;-5.02;64.24
20228;BME280;12195;55.790;37.572;2023-11-21T12:26:22;99514.09;;;-5.15;64.00
20228;BME280;12195;55.790;37.572;2023-11-21T12:28:56;99524.33;;;-5.15;64.09
20228;BME280;12195;55.790;37.572;2023-11-21T12:31:31;99521.81;;;-5.09;64.38
20228;BME280;12195;55.790;37.572;2023-11-21T12:34:06;99521.77;;;-5.15;64.37
20228;BME280;12195;55.790;37.572;2023-11-21T12:36:41;99526.02;;;-5.20;64.30
20228;BME280;12195;55.790;37.572;2023-11-21T12:39:16;99525.19;;;-5.20;64.36
20228;BME280;12195;55.790;37.572;2023-11-21T12:41:50;99524.27;;;-5.27;64.35
20228;BME280;12195;55.790;37.572;2023-11-21T12:44:24;99526.00;;;-5.27;64.44
20228;BME280;12195;55.790;37.572;2023-11-21T12:46:59;99532.80;;;-5.28;64.59
20228;BME280;12195;55.790;37.572;2023-11-21T12:49:34;99533.69;;;-5.21;64.62
20228;BME280;12195;55.790;37.572;2023-11-21T12:52:07;99538.76;;;-5.30;64.76
20228;BME280;12195;55.790;37.572;2023-11-21T12:54:45;99527.69;;;-5.28;64.70
20228;BME280;12195;55.790;37.572;2023-11-21T12:57:25;99527.72;;;-5.19;64.90
20228;BME280;12195;55.790;37.572;2023-11-21T12:59:58;99529.45;;;-5.18;64.77
20228;BME280;12195;55.790;37.572;2023-11-21T13:02:32;99523.45;;;-5.21;64.34
20228;BME280;12195;55.790;37.572;2023-11-21T13:05:08;99531.13;;;-5.26;64.40
20228;BME280;12195;55.790;37.572;2023-11-21T13:07:43;99533.64;;;-5.30;64.48
20228;BME280;12195;55.790;37.572;2023-11-21T13:10:19;99533.68;;;-5.26;64.62
20228;BME280;12195;55.790;37.572;2023-11-21T13:12:55;99534.55;;;-5.21;64.70
20228;BME280;12195;55.790;37.572;2023-11-21T13:15:32;99536.20;;;-5.35;64.62
20228;BME280;12195;55.790;37.572;2023-11-21T13:18:08;99546.43;;;-5.30;64.64
20228;BME280;12195;55.790;37.572;2023-11-21T13:20:45;99540.44;;;-5.35;64.67
20228;BME280;12195;55.790;37.572;2023-11-21T13:23:21;99559.20;;;-5.32;64.81
20228;BME280;12195;55.790;37.572;2023-11-21T13:25:56;99560.88;;;-5.38;64.82
20228;BME280;12195;55.790;37.572;2023-11-21T13:28:34;99561.69;;;-5.44;64.77
20228;BME280;12195;55.790;37.572;2023-11-21T13:31:09;99557.41;;;-5.46;64.90
20228;BME280;12195;55.790;37.572;2023-11-21T13:33:45;99558.31;;;-5.43;65.05
20228;BME280;12195;55.790;37.572;2023-11-21T13:36:20;99561.69;;;-5.47;64.57
20228;BME280;12195;55.790;37.572;2023-11-21T13:38:56;99556.53;;;-5.51;64.47
20228;BME280;12195;55.790;37.572;2023-11-21T13:41:31;99553.94;;;-5.56;64.46
20228;BME280;12195;55.790;37.572;2023-11-21T13:44:04;99560.77;;;-5.56;64.42